Decoded Metar for VQPR (PARO in BHUTAN) (IATA:PBH) | Meteo·Mobile Aviation Weather
aviador You're here:

VQPR Decoded Metar

PARO in BHUTAN
Report Time2018-09-20 02:30:00
UTC Time2018-09-20 03:02:27
Flight Rules vfr VFR
WindCalm
Visibility9999 m
Phenomena:N/A
Clouds:Scattered 040 Hf
Broken 100 Hf
Expected CloudBase > 2,000 ft AGL from Temp-Dew spread
Ceiling10,000 ft
Temp15°C
Dew Point10°C (72% RH)
QNH1025 hPa
Raw Report
VQPR 200230Z 00000KT 9999 SCT040 BKN100 15/10 Q1025=

Extra information for VQPR:More info

Metar Taf Metar & Taf Last 4 Metars F.Rules Stats Wind Profile Meteogram Temp Stats Airport Information Weather charts Add Link Nearby VenuesMetar ALERT Operation Metar Decoded Social comments